Poynor, TX

4:54 PM CDT on October 01, 2014 (GMT -0500)
Weaver Estates | Change Station
CLOSE
Current Station
Personal Weather Station
Location: Bullard, TX
Elevation: 384 ft
Nearby Weather Stations

Elev 384 ft 32.09 °N, 95.42 °W | Updated 5 minutes ago

Clear
Clear
91.6 °F
Feels Like 102 °F
N
3.2
Wind Variable Wind from SE

Today
High -- | Low -- °F
--% Chance of Precip.
Yesterday
High -- | Low -- °F
Precip. -- in
7:16 AM 7:07 PM
Waxing Crescent, 51% visible
Pressure 29.75 in
Visibility 10.0 miles
Clouds Scattered Clouds 6000 ft
Scattered Clouds 6500 ft
Heat Index 102 °F
Dew Point 75 °F
Humidity 58%
Rainfall 0.00 in
Snow Depth Not available.
UV 3 out of 12
Pollen 9.20 out of 12
Air Quality Not available.
Flu Activity Not available.
METAR KF44 012135Z AUTO 16008KT 130V210 10SM SCT060 SCT065 32/18 A2975 RMK AO2

More Conditions Fewer Conditions

Pressure 29.75 in
Visibility 10.0 miles
Clouds Scattered Clouds 6000 ft
Scattered Clouds 6500 ft
Heat Index 102 °F
Dew Point 75 °F
Humidity 58%
Rainfall 0.00 in
Snow Depth Not available.
UV 3 out of 12
Pollen 9.20 out of 12
Air Quality Not available.
Flu Activity Not available.
METAR KF44 012135Z AUTO 16008KT 130V210 10SM SCT060 SCT065 32/18 A2975 RMK AO2

More Conditions Fewer Conditions

10-Day Weather Forecast

Almanac

Astronomy

Oct. 01, 2014 Rise Set
Actual Time 7:16 AM CDT 7:07 PM CDT
Civil Twilight 6:51 AM CDT 7:31 PM CDT
Nautical Twilight 6:23 AM CDT 7:59 PM CDT
Astronomical Twilight 5:55 AM CDT 8:28 PM CDT
Moon 2:03 PM CDT No Moon Set
Length of Visible Light 12h 39m
Length of Day
11h 50m
Tomorrow will be 1m 57s shorter.
Waxing Crescent, 51% of the Moon is Illuminated
Today
Waxing Crescent
Oct 8
Full
Oct 15
Last Quarter
Oct 23
New
Oct 30
First Quarter

Today's Extremes

State Highs State Lows

Community

WunderPhotos

Upload Photos

1,758,057 photos uploaded!

WunderBlogs® & News

By Dr. Jeff Masters
Director of Meteorology, Weather Underground
By Kari Strenfel
Meteorologist, Weather Underground
By Christopher C. Burt
Weather Historian, Weather Underground
October 1, 2014
October 1, 2014
October 1, 2014

Nearby

Snow Depth

Station Depth Elevation
No new snow has been reported.

Earthquake Activity

City Distance Mag. Time & Date
No recent earthquake activity has been reported nearby.
Minimum magnitude displayed is 2.5.

Coastal Water Temperatures

Place Temperature
No Stations Reporting

Nearby Weather Stations